createdAt,value
2017-09-16T00:00:56.345Z,0
2017-09-16T00:02:05.361Z,0
2017-09-16T00:03:14.374Z,0
2017-09-16T00:04:23.393Z,0
2017-09-16T00:05:32.409Z,0
2017-09-16T00:06:41.741Z,0
2017-09-16T00:07:51.071Z,0
2017-09-16T00:09:00.726Z,0
2017-09-16T00:10:09.419Z,0
2017-09-16T00:11:18.118Z,0
2017-09-16T00:12:27.131Z,0
2017-09-16T00:13:36.785Z,0
2017-09-16T00:14:46.438Z,0
2017-09-16T00:15:55.458Z,0
2017-09-16T00:17:04.153Z,0
2017-09-16T00:18:14.129Z,0
2017-09-16T00:19:23.464Z,0
2017-09-16T00:20:32.480Z,0
2017-09-16T00:21:41.498Z,0
2017-09-16T00:22:50.520Z,0
2017-09-16T00:24:00.495Z,0
2017-09-16T00:25:09.514Z,0
2017-09-16T00:26:18.530Z,0
2017-09-16T00:27:27.871Z,0
2017-09-16T00:28:37.202Z,0
2017-09-16T00:29:45.900Z,0
2017-09-16T00:30:55.237Z,0
2017-09-16T00:32:04.259Z,0
2017-09-16T00:33:13.279Z,0
2017-09-16T00:34:22.296Z,0
2017-09-16T00:35:31.309Z,0
2017-09-16T00:36:40.008Z,0
2017-09-16T00:37:49.024Z,0
2017-09-16T00:38:58.680Z,0
2017-09-16T00:40:08.336Z,0
2017-09-16T00:41:17.350Z,0
2017-09-16T00:42:26.686Z,0
2017-09-16T00:43:36.022Z,0
2017-09-16T00:44:45.036Z,0
2017-09-16T00:45:53.730Z,0
2017-09-16T00:47:02.424Z,0
2017-09-16T00:48:11.119Z,0
2017-09-16T00:49:20.132Z,0
2017-09-16T00:50:28.828Z,0
2017-09-16T00:51:37.840Z,0
2017-09-16T00:52:47.175Z,0
2017-09-16T00:53:56.189Z,0
2017-09-16T00:55:05.847Z,0
2017-09-16T00:56:15.181Z,0
2017-09-16T00:57:24.835Z,0
2017-09-16T00:58:33.532Z,0
2017-09-16T00:59:43.183Z,0
2017-09-16T01:00:52.529Z,0
2017-09-16T01:02:01.865Z,0
2017-09-16T01:03:10.560Z,0
2017-09-16T01:04:19.576Z,0
2017-09-16T01:05:28.274Z,0
2017-09-16T01:06:37.611Z,0
2017-09-16T01:07:46.624Z,0
2017-09-16T01:08:55.956Z,0
2017-09-16T01:10:04.973Z,0
2017-09-16T01:11:14.309Z,0
2017-09-16T01:12:24.281Z,0
2017-09-16T01:13:33.316Z,0
2017-09-16T01:14:42.338Z,0
2017-09-16T01:15:51.675Z,0
2017-09-16T01:17:00.692Z,0
2017-09-16T01:18:09.712Z,0
2017-09-16T01:19:19.365Z,0
2017-09-16T01:20:28.741Z,0
2017-09-16T01:21:38.082Z,0
2017-09-16T01:22:47.415Z,0
2017-09-16T01:23:57.067Z,0
2017-09-16T01:25:07.044Z,0
2017-09-16T01:26:16.058Z,0
2017-09-16T01:27:25.075Z,0
2017-09-16T01:28:34.412Z,0
2017-09-16T01:29:43.425Z,0
2017-09-16T01:30:52.442Z,0
2017-09-16T01:32:01.460Z,0
2017-09-16T01:33:11.117Z,0
2017-09-16T01:34:20.133Z,0
2017-09-16T01:35:29.789Z,0
2017-09-16T01:36:38.806Z,0
2017-09-16T01:37:48.462Z,0
2017-09-16T01:38:58.437Z,0
2017-09-16T01:40:08.088Z,0
2017-09-16T01:41:16.784Z,0
2017-09-16T01:42:26.119Z,0
2017-09-16T01:43:34.814Z,0
2017-09-16T01:44:43.831Z,0
2017-09-16T01:45:52.846Z,0
2017-09-16T01:47:01.862Z,0
2017-09-16T01:48:11.197Z,0
2017-09-16T01:49:20.210Z,0
2017-09-16T01:50:29.543Z,0
2017-09-16T01:51:38.560Z,0
2017-09-16T01:52:47.254Z,0
2017-09-16T01:53:56.589Z,0
2017-09-16T01:55:06.241Z,0
2017-09-16T01:56:14.936Z,0
2017-09-16T01:57:24.268Z,0
2017-09-16T01:58:32.965Z,0
2017-09-16T01:59:41.982Z,0
2017-09-16T02:00:50.997Z,0
2017-09-16T02:02:00.014Z,0
2017-09-16T02:03:09.668Z,0
2017-09-16T02:04:18.678Z,0
2017-09-16T02:05:27.372Z,0
2017-09-16T02:06:36.069Z,0
2017-09-16T02:07:45.402Z,0
2017-09-16T02:08:54.422Z,0
2017-09-16T02:10:03.769Z,0
2017-09-16T02:11:12.786Z,0
2017-09-16T02:12:22.437Z,0
2017-09-16T02:13:31.449Z,0
2017-09-16T02:14:40.464Z,0
2017-09-16T02:15:49.798Z,0
2017-09-16T02:16:59.136Z,0
2017-09-16T02:18:07.831Z,0
2017-09-16T02:19:16.846Z,0
2017-09-16T02:20:26.184Z,0
2017-09-16T02:21:35.520Z,0
2017-09-16T02:22:44.532Z,0
2017-09-16T02:23:54.501Z,0
2017-09-16T02:25:03.515Z,0
2017-09-16T02:26:12.853Z,0
2017-09-16T02:27:22.190Z,0
2017-09-16T02:28:31.524Z,0
2017-09-16T02:29:40.538Z,0
2017-09-16T02:30:49.555Z,0
2017-09-16T02:31:58.890Z,0
2017-09-16T02:33:08.562Z,0
2017-09-16T02:34:17.897Z,0
2017-09-16T02:35:27.231Z,0
2017-09-16T02:36:36.250Z,0
2017-09-16T02:37:45.265Z,0
2017-09-16T02:38:54.929Z,0
2017-09-16T02:40:03.941Z,0
2017-09-16T02:41:12.956Z,0
2017-09-16T02:42:22.614Z,0
2017-09-16T02:43:31.633Z,0
2017-09-16T02:44:40.648Z,0
2017-09-16T02:45:49.662Z,0
2017-09-16T02:46:58.676Z,0
2017-09-16T02:48:07.370Z,0
2017-09-16T02:49:16.387Z,0
2017-09-16T02:50:25.403Z,0
2017-09-16T02:51:34.101Z,0
2017-09-16T02:52:43.435Z,0
2017-09-16T02:53:52.449Z,0
2017-09-16T02:55:01.468Z,0
2017-09-16T02:56:10.486Z,0
2017-09-16T02:57:19.825Z,0
2017-09-16T02:58:28.520Z,0
2017-09-16T02:59:37.218Z,0
2017-09-16T03:00:46.553Z,0
2017-09-16T03:01:56.206Z,0
2017-09-16T03:03:04.901Z,0
2017-09-16T03:04:14.235Z,0
2017-09-16T03:05:23.565Z,0
2017-09-16T03:06:32.897Z,0
2017-09-16T03:07:41.591Z,0
2017-09-16T03:08:50.608Z,0
2017-09-16T03:09:59.941Z,0
2017-09-16T03:11:09.277Z,0
2017-09-16T03:12:18.289Z,0
2017-09-16T03:13:27.302Z,0
2017-09-16T03:14:36.314Z,0
2017-09-16T03:15:45.648Z,0
2017-09-16T03:16:54.343Z,0
2017-09-16T03:18:03.358Z,0
2017-09-16T03:19:12.370Z,0
2017-09-16T03:20:21.706Z,0
2017-09-16T03:21:31.040Z,0
2017-09-16T03:22:40.379Z,0
2017-09-16T03:23:50.041Z,0
2017-09-16T03:24:58.735Z,0
2017-09-16T03:26:08.389Z,0
2017-09-16T03:27:17.406Z,0
2017-09-16T03:28:26.420Z,0
2017-09-16T03:29:35.117Z,0
2017-09-16T03:30:45.100Z,0
2017-09-16T03:31:54.436Z,0
2017-09-16T03:33:03.131Z,0
2017-09-16T03:34:12.784Z,0
2017-09-16T03:35:22.118Z,0
2017-09-16T03:36:31.773Z,0
2017-09-16T03:37:41.749Z,0
2017-09-16T03:38:50.762Z,0
2017-09-16T03:40:00.097Z,0
2017-09-16T03:41:09.430Z,0
2017-09-16T03:42:18.125Z,0
2017-09-16T03:43:27.140Z,0
2017-09-16T03:44:36.801Z,0
2017-09-16T03:45:46.132Z,0
2017-09-16T03:46:54.826Z,0
2017-09-16T03:48:04.479Z,0
2017-09-16T03:49:13.494Z,0
2017-09-16T03:50:22.509Z,0
2017-09-16T03:51:31.204Z,0
2017-09-16T03:52:40.222Z,0
2017-09-16T03:53:50.201Z,0
2017-09-16T03:54:59.535Z,0
2017-09-16T03:56:08.558Z,0
2017-09-16T03:57:17.251Z,0
2017-09-16T03:58:26.585Z,0
2017-09-16T03:59:35.919Z,0
2017-09-16T04:00:45.254Z,0
2017-09-16T04:01:53.953Z,0
2017-09-16T04:03:03.286Z,0
2017-09-16T04:04:12.621Z,0
2017-09-16T04:05:21.955Z,0
2017-09-16T04:06:31.295Z,0
2017-09-16T04:07:39.988Z,0
2017-09-16T04:08:48.682Z,0
2017-09-16T04:09:57.696Z,0
2017-09-16T04:11:06.714Z,0
2017-09-16T04:12:15.728Z,0
2017-09-16T04:13:24.745Z,0
2017-09-16T04:14:34.400Z,0
2017-09-16T04:15:43.415Z,0
2017-09-16T04:16:52.109Z,0
2017-09-16T04:18:01.443Z,0
2017-09-16T04:19:10.777Z,0
2017-09-16T04:20:19.471Z,0
2017-09-16T04:21:28.806Z,0
2017-09-16T04:22:37.819Z,0
2017-09-16T04:23:46.837Z,0
2017-09-16T04:24:56.172Z,0
2017-09-16T04:26:05.507Z,0
2017-09-16T04:27:14.204Z,0
2017-09-16T04:28:23.219Z,0
2017-09-16T04:29:31.912Z,0
2017-09-16T04:30:41.257Z,0
2017-09-16T04:31:49.954Z,0
2017-09-16T04:32:58.649Z,0
2017-09-16T04:34:08.632Z,0
2017-09-16T04:35:17.328Z,0
2017-09-16T04:36:26.024Z,0
2017-09-16T04:37:35.356Z,0
2017-09-16T04:38:44.689Z,0
2017-09-16T04:39:54.345Z,0
2017-09-16T04:41:03.678Z,0
2017-09-16T04:42:12.695Z,0
2017-09-16T04:43:22.041Z,0
2017-09-16T04:44:31.375Z,0
2017-09-16T04:45:40.707Z,0
2017-09-16T04:46:49.720Z,0
2017-09-16T04:47:59.059Z,0
2017-09-16T04:49:08.073Z,4
2017-09-16T04:50:17.088Z,0
2017-09-16T04:51:26.423Z,0
2017-09-16T04:52:35.438Z,4
2017-09-16T04:53:45.089Z,4
2017-09-16T04:54:54.102Z,8
2017-09-16T04:56:03.439Z,4
2017-09-16T04:57:12.773Z,4
2017-09-16T04:58:21.793Z,8
2017-09-16T04:59:31.448Z,8
2017-09-16T05:00:41.104Z,8
2017-09-16T05:01:50.121Z,12
2017-09-16T05:02:59.781Z,12
2017-09-16T05:04:08.797Z,16
2017-09-16T05:05:17.813Z,16
2017-09-16T05:06:27.146Z,20
2017-09-16T05:07:35.842Z,20
2017-09-16T05:08:44.856Z,24
2017-09-16T05:09:53.880Z,24
2017-09-16T05:11:03.211Z,28
2017-09-16T05:12:12.619Z,32
2017-09-16T05:13:21.633Z,32
2017-09-16T05:14:30.974Z,40
2017-09-16T05:15:39.670Z,40
2017-09-16T05:16:48.683Z,40
2017-09-16T05:17:57.698Z,48
2017-09-16T05:19:07.356Z,52
2017-09-16T05:20:17.656Z,60
2017-09-16T05:21:26.990Z,64
2017-09-16T05:22:36.330Z,72
2017-09-16T05:23:45.345Z,76
2017-09-16T05:24:55.005Z,80
2017-09-16T05:26:04.021Z,84
2017-09-16T05:27:13.361Z,92
2017-09-16T05:28:22.058Z,96
2017-09-16T05:29:31.076Z,104
2017-09-16T05:30:40.731Z,108
2017-09-16T05:31:50.065Z,112
2017-09-16T05:32:58.760Z,120
2017-09-16T05:34:08.093Z,124
2017-09-16T05:35:17.109Z,132
2017-09-16T05:36:26.122Z,132
2017-09-16T05:37:35.776Z,136
2017-09-16T05:38:45.111Z,140
2017-09-16T05:39:54.455Z,144
2017-09-16T05:41:04.109Z,152
2017-09-16T05:42:12.806Z,160
2017-09-16T05:43:22.460Z,168
2017-09-16T05:44:31.473Z,172
2017-09-16T05:45:40.848Z,184
2017-09-16T05:46:49.862Z,200
2017-09-16T05:47:59.199Z,216
2017-09-16T05:49:08.539Z,232
2017-09-16T05:50:17.558Z,240
2017-09-16T05:51:26.573Z,240
2017-09-16T05:52:35.594Z,240
2017-09-16T05:53:44.612Z,268
2017-09-16T05:54:54.276Z,272
2017-09-16T05:56:02.970Z,272
2017-09-16T05:57:11.666Z,296
2017-09-16T05:58:20.679Z,324
2017-09-16T05:59:29.694Z,332
2017-09-16T06:00:38.712Z,344
2017-09-16T06:01:48.045Z,356
2017-09-16T06:02:56.741Z,376
2017-09-16T06:04:05.760Z,380
2017-09-16T06:05:15.412Z,380
2017-09-16T06:06:24.107Z,400
2017-09-16T06:07:33.124Z,392
2017-09-16T06:08:42.456Z,372
2017-09-16T06:09:51.471Z,340
2017-09-16T06:11:00.489Z,360
2017-09-16T06:12:09.824Z,404
2017-09-16T06:13:18.840Z,428
2017-09-16T06:14:27.857Z,452
2017-09-16T06:15:37.197Z,476
2017-09-16T06:16:45.893Z,524
2017-09-16T06:17:55.230Z,548
2017-09-16T06:19:03.925Z,600
2017-09-16T06:20:13.260Z,604
2017-09-16T06:21:22.916Z,628
2017-09-16T06:22:32.249Z,668
2017-09-16T06:23:40.941Z,656
2017-09-16T06:24:50.596Z,620
2017-09-16T06:25:59.935Z,696
2017-09-16T06:27:09.265Z,712
2017-09-16T06:28:17.960Z,664
2017-09-16T06:29:27.298Z,704
2017-09-16T06:30:36.313Z,584
2017-09-16T06:31:45.973Z,624
2017-09-16T06:32:55.310Z,684
2017-09-16T06:34:04.005Z,752
2017-09-16T06:35:13.339Z,736
2017-09-16T06:36:22.354Z,852
2017-09-16T06:37:31.687Z,840
2017-09-16T06:38:40.701Z,876
2017-09-16T06:39:49.398Z,960
2017-09-16T06:40:58.412Z,928
2017-09-16T06:42:08.063Z,956
2017-09-16T06:43:17.720Z,1040
2017-09-16T06:44:27.374Z,1096
2017-09-16T06:45:36.711Z,1088
2017-09-16T06:46:46.044Z,1176
2017-09-16T06:47:54.745Z,1092
2017-09-16T06:49:04.084Z,1212
2017-09-16T06:50:13.099Z,1276
2017-09-16T06:51:21.805Z,1280
2017-09-16T06:52:30.817Z,1280
2017-09-16T06:53:40.150Z,1164
2017-09-16T06:54:49.805Z,1356
2017-09-16T06:55:59.147Z,1336
2017-09-16T06:57:08.802Z,1408
2017-09-16T06:58:18.139Z,1132
2017-09-16T06:59:26.834Z,1200
2017-09-16T07:00:36.490Z,1048
2017-09-16T07:01:45.506Z,1292
2017-09-16T07:02:55.166Z,856
2017-09-16T07:04:04.506Z,1532
2017-09-16T07:05:13.841Z,1612
2017-09-16T07:06:22.855Z,1384
2017-09-16T07:07:32.188Z,1544
2017-09-16T07:08:41.847Z,1736
2017-09-16T07:09:50.861Z,972
2017-09-16T07:11:00.199Z,1112
2017-09-16T07:12:09.529Z,1056
2017-09-16T07:13:18.223Z,1456
2017-09-16T07:14:26.924Z,1044
2017-09-16T07:15:36.268Z,1348
2017-09-16T07:16:45.285Z,1200
2017-09-16T07:17:53.981Z,1920
2017-09-16T07:19:02.996Z,1676
2017-09-16T07:20:12.331Z,1228
2017-09-16T07:21:21.026Z,2228
2017-09-16T07:22:30.365Z,1316
2017-09-16T07:23:39.382Z,2140
2017-09-16T07:24:48.717Z,1876
2017-09-16T07:25:57.412Z,1780
2017-09-16T07:27:06.428Z,1636
2017-09-16T07:28:15.766Z,2156
2017-09-16T07:29:24.784Z,3052
2017-09-16T07:30:34.120Z,1768
2017-09-16T07:31:43.140Z,2556
2017-09-16T07:32:52.155Z,2456
2017-09-16T07:34:01.490Z,1860
2017-09-16T07:35:10.503Z,4620
2017-09-16T07:36:19.520Z,12792
2017-09-16T07:37:28.218Z,3112
2017-09-16T07:38:37.231Z,6224
2017-09-16T07:39:46.246Z,14936
2017-09-16T07:40:55.579Z,7476
2017-09-16T07:42:04.274Z,1676
2017-09-16T07:43:13.617Z,4608
2017-09-16T07:44:22.955Z,13124
2017-09-16T07:45:31.652Z,10724
2017-09-16T07:46:40.984Z,9172
2017-09-16T07:47:50.963Z,6252
2017-09-16T07:49:00.633Z,1616
2017-09-16T07:50:09.655Z,9752
2017-09-16T07:51:18.355Z,3868
2017-09-16T07:52:27.370Z,2924
2017-09-16T07:53:36.386Z,5064
2017-09-16T07:54:45.726Z,4448
2017-09-16T07:55:55.381Z,1212
2017-09-16T07:57:04.400Z,1320
2017-09-16T07:58:13.098Z,1608
2017-09-16T07:59:22.119Z,2784
2017-09-16T08:00:31.455Z,19808
2017-09-16T08:01:40.472Z,3692
2017-09-16T08:02:49.489Z,3160
2017-09-16T08:03:58.184Z,19776
2017-09-16T08:05:06.881Z,13884
2017-09-16T08:06:15.897Z,3656
2017-09-16T08:07:25.230Z,10632
2017-09-16T08:08:34.567Z,20032
2017-09-16T08:09:43.906Z,18304
2017-09-16T08:10:52.921Z,1324
2017-09-16T08:12:02.580Z,7256
2017-09-16T08:13:11.925Z,2520
2017-09-16T08:14:21.588Z,9048
2017-09-16T08:15:30.922Z,3944
2017-09-16T08:16:39.938Z,1464
2017-09-16T08:17:49.594Z,15040
2017-09-16T08:18:58.292Z,10832
2017-09-16T08:20:07.310Z,5860
2017-09-16T08:21:16.007Z,1512
2017-09-16T08:22:25.347Z,12960
2017-09-16T08:23:34.368Z,12144
2017-09-16T08:24:43.069Z,3136
2017-09-16T08:25:52.404Z,6840
2017-09-16T08:27:01.744Z,9388
2017-09-16T08:28:11.411Z,4512
2017-09-16T08:29:20.749Z,3224
2017-09-16T08:30:29.449Z,2364
2017-09-16T08:31:38.787Z,1512
2017-09-16T08:32:47.806Z,2628
2017-09-16T08:33:56.504Z,2716
2017-09-16T08:35:05.840Z,2104
2017-09-16T08:36:14.858Z,1472
2017-09-16T08:37:23.877Z,2000
2017-09-16T08:38:32.893Z,3072
2017-09-16T08:39:42.229Z,3560
2017-09-16T08:40:51.249Z,2784
2017-09-16T08:42:00.272Z,3300
2017-09-16T08:43:09.610Z,1512
2017-09-16T08:44:18.952Z,1804
2017-09-16T08:45:28.607Z,1832
2017-09-16T08:46:37.305Z,1580
2017-09-16T08:47:46.330Z,2628
2017-09-16T08:48:55.986Z,1556
2017-09-16T08:50:05.006Z,2796
2017-09-16T08:51:14.027Z,2396
2017-09-16T08:52:23.045Z,1864
2017-09-16T08:53:32.062Z,1308
2017-09-16T08:54:41.076Z,2088
2017-09-16T08:55:50.408Z,1616
2017-09-16T08:56:59.432Z,1880
2017-09-16T08:58:09.094Z,2556
2017-09-16T08:59:17.792Z,1992
2017-09-16T09:00:27.131Z,2828
2017-09-16T09:01:36.467Z,2180
2017-09-16T09:02:46.125Z,2056
2017-09-16T09:03:55.460Z,836
2017-09-16T09:05:04.802Z,1244
2017-09-16T09:06:14.456Z,2072
2017-09-16T09:07:23.792Z,1360
2017-09-16T09:08:33.128Z,2456
2017-09-16T09:09:41.823Z,2196
2017-09-16T09:10:51.168Z,1360
2017-09-16T09:12:00.184Z,1612
2017-09-16T09:13:09.201Z,1108
2017-09-16T09:14:18.539Z,3192
2017-09-16T09:15:27.881Z,3724
2017-09-16T09:16:37.216Z,1592
2017-09-16T09:17:46.232Z,1736
2017-09-16T09:18:55.568Z,2388
2017-09-16T09:20:04.905Z,3180
2017-09-16T09:21:14.242Z,3860
2017-09-16T09:22:23.258Z,2988
2017-09-16T09:23:32.610Z,3624
2017-09-16T09:24:41.952Z,2028
2017-09-16T09:25:51.288Z,1816
2017-09-16T09:27:00.303Z,3796
2017-09-16T09:28:09.958Z,3416
2017-09-16T09:29:19.298Z,2288
2017-09-16T09:30:28.954Z,2980
2017-09-16T09:31:38.295Z,4236
2017-09-16T09:32:46.988Z,3584
2017-09-16T09:33:56.005Z,4880
2017-09-16T09:35:05.027Z,4500
2017-09-16T09:36:13.723Z,5280
2017-09-16T09:37:22.739Z,6212
2017-09-16T09:38:32.396Z,2040
2017-09-16T09:39:41.731Z,1176
2017-09-16T09:40:51.069Z,1192
2017-09-16T09:41:59.768Z,620
2017-09-16T09:43:09.104Z,728
2017-09-16T09:44:18.122Z,2044
2017-09-16T09:45:27.465Z,24352
2017-09-16T09:46:37.119Z,33024
2017-09-16T09:47:46.459Z,33824
2017-09-16T09:48:55.801Z,30496
2017-09-16T09:50:05.147Z,31072
2017-09-16T09:51:13.846Z,2892
2017-09-16T09:52:22.870Z,16320
2017-09-16T09:53:31.889Z,30176
2017-09-16T09:54:41.226Z,33696
2017-09-16T09:55:50.564Z,32896
2017-09-16T09:57:00.226Z,34752
2017-09-16T09:58:09.883Z,12440
2017-09-16T09:59:18.580Z,2968
2017-09-16T10:00:27.282Z,2128
2017-09-16T10:01:36.618Z,2380
2017-09-16T10:02:45.956Z,8728
2017-09-16T10:03:54.974Z,4544
2017-09-16T10:05:04.315Z,3604
2017-09-16T10:06:13.017Z,2084
2017-09-16T10:07:22.678Z,908
2017-09-16T10:08:32.017Z,1296
2017-09-16T10:09:41.374Z,872
2017-09-16T10:10:50.713Z,900
2017-09-16T10:11:59.733Z,796
2017-09-16T10:13:09.083Z,1100
2017-09-16T10:14:18.100Z,2584
2017-09-16T10:15:27.120Z,32128
2017-09-16T10:16:36.136Z,10084
2017-09-16T10:17:45.158Z,22688
2017-09-16T10:18:54.817Z,6748
2017-09-16T10:20:04.161Z,3276
2017-09-16T10:21:13.505Z,2380
2017-09-16T10:22:22.203Z,3776
2017-09-16T10:23:31.225Z,38304
2017-09-16T10:24:40.888Z,37696
2017-09-16T10:25:49.916Z,1320
2017-09-16T10:26:59.258Z,912
2017-09-16T10:28:08.597Z,884
2017-09-16T10:29:17.299Z,1184
2017-09-16T10:30:25.999Z,37312
2017-09-16T10:31:35.019Z,38752
2017-09-16T10:32:44.355Z,38208
2017-09-16T10:33:53.373Z,38368
2017-09-16T10:35:02.393Z,38112
2017-09-16T10:36:11.764Z,36672
2017-09-16T10:37:20.466Z,36896
2017-09-16T10:38:29.803Z,36096
2017-09-16T10:39:38.501Z,36672
2017-09-16T10:40:47.840Z,31840
2017-09-16T10:41:56.545Z,33312
2017-09-16T10:43:05.890Z,4380
2017-09-16T10:44:14.933Z,12216
2017-09-16T10:45:23.936Z,5624
2017-09-16T10:46:32.640Z,2252
2017-09-16T10:47:41.663Z,1752
2017-09-16T10:48:51.645Z,2516
2017-09-16T10:50:00.673Z,8348
2017-09-16T10:51:10.338Z,3372
2017-09-16T10:52:19.357Z,12136
2017-09-16T10:53:28.382Z,37056
2017-09-16T10:54:37.723Z,37344
2017-09-16T10:55:47.067Z,23104
2017-09-16T10:56:55.771Z,38656
2017-09-16T10:58:04.794Z,12456
2017-09-16T10:59:14.138Z,28576
2017-09-16T11:00:23.797Z,12448
2017-09-16T11:01:33.458Z,37504
2017-09-16T11:02:42.482Z,30592
2017-09-16T11:03:51.508Z,22112
2017-09-16T11:05:00.537Z,38400
2017-09-16T11:06:09.242Z,36160
2017-09-16T11:07:18.905Z,15456
2017-09-16T11:08:27.607Z,38720
2017-09-16T11:09:36.632Z,38848
2017-09-16T11:10:45.976Z,39584
2017-09-16T11:11:55.636Z,38048
2017-09-16T11:13:04.657Z,39040
2017-09-16T11:14:13.682Z,39584
2017-09-16T11:15:22.386Z,39776
2017-09-16T11:16:31.771Z,31776
2017-09-16T11:17:41.114Z,39232
2017-09-16T11:18:50.135Z,41088
2017-09-16T11:19:58.840Z,1044
2017-09-16T11:21:08.183Z,976
2017-09-16T11:22:17.209Z,42912
2017-09-16T11:23:26.233Z,40960
2017-09-16T11:24:35.257Z,40064
2017-09-16T11:25:44.607Z,40000
2017-09-16T11:26:54.269Z,37664
2017-09-16T11:28:02.986Z,39200
2017-09-16T11:29:12.006Z,38880
2017-09-16T11:30:21.037Z,39712
2017-09-16T11:31:30.715Z,39392
2017-09-16T11:32:40.062Z,40000
2017-09-16T11:33:49.726Z,3828
2017-09-16T11:34:58.751Z,41600
2017-09-16T11:36:07.775Z,2228
2017-09-16T11:37:17.118Z,3820
2017-09-16T11:38:26.148Z,2832
2017-09-16T11:39:35.489Z,4584
2017-09-16T11:40:44.515Z,39840
2017-09-16T11:41:53.860Z,38048
2017-09-16T11:43:02.883Z,33024
2017-09-16T11:44:12.869Z,37696
2017-09-16T11:45:21.891Z,2672
2017-09-16T11:46:30.913Z,800
2017-09-16T11:47:39.934Z,828
2017-09-16T11:48:49.277Z,996
2017-09-16T11:49:58.941Z,4188
2017-09-16T11:51:08.284Z,1448
2017-09-16T11:52:17.625Z,1088
2017-09-16T11:53:26.329Z,892
2017-09-16T11:54:36.638Z,908
2017-09-16T11:55:45.987Z,1152
2017-09-16T11:56:55.646Z,1132
2017-09-16T11:58:04.994Z,1120
2017-09-16T11:59:14.659Z,1016
2017-09-16T12:00:24.002Z,1352
2017-09-16T12:01:32.703Z,1224
2017-09-16T12:02:42.376Z,964
2017-09-16T12:03:52.351Z,960
2017-09-16T12:05:01.371Z,944
2017-09-16T12:06:10.712Z,1000
2017-09-16T12:07:20.056Z,868
2017-09-16T12:08:29.722Z,716
2017-09-16T12:09:39.070Z,780
2017-09-16T12:10:48.414Z,976
2017-09-16T12:11:57.435Z,1008
2017-09-16T12:13:06.136Z,956
2017-09-16T12:14:15.477Z,744
2017-09-16T12:15:24.821Z,696
2017-09-16T12:16:33.845Z,992
2017-09-16T12:17:42.544Z,1164
2017-09-16T12:18:51.245Z,1108
2017-09-16T12:20:00.906Z,1096
2017-09-16T12:21:09.920Z,1020
2017-09-16T12:22:19.260Z,856
2017-09-16T12:23:28.922Z,960
2017-09-16T12:24:37.942Z,1132
2017-09-16T12:25:46.962Z,1208
2017-09-16T12:26:55.661Z,1504
2017-09-16T12:28:05.003Z,1856
2017-09-16T12:29:14.339Z,2904
2017-09-16T12:30:23.360Z,1704
2017-09-16T12:31:32.381Z,2296
2017-09-16T12:32:41.083Z,2548
2017-09-16T12:33:50.100Z,2200
2017-09-16T12:34:59.440Z,2012
2017-09-16T12:36:09.096Z,1768
2017-09-16T12:37:18.440Z,1716
2017-09-16T12:38:28.420Z,1628
2017-09-16T12:39:37.757Z,1356
2017-09-16T12:40:47.413Z,1880
2017-09-16T12:41:56.433Z,1440
2017-09-16T12:43:06.089Z,1764
2017-09-16T12:44:15.437Z,2144
2017-09-16T12:45:24.773Z,2012
2017-09-16T12:46:33.792Z,1732
2017-09-16T12:47:43.133Z,1696
2017-09-16T12:48:51.830Z,1512
2017-09-16T12:50:00.850Z,1740
2017-09-16T12:51:10.188Z,1924
2017-09-16T12:52:19.523Z,2128
2017-09-16T12:53:28.863Z,2080
2017-09-16T12:54:37.564Z,1956
2017-09-16T12:55:46.907Z,1864
2017-09-16T12:56:56.249Z,1760
2017-09-16T12:58:05.598Z,1548
2017-09-16T12:59:14.616Z,1568
2017-09-16T13:00:23.635Z,1880
2017-09-16T13:01:32.654Z,2232
2017-09-16T13:02:41.676Z,2224
2017-09-16T13:03:51.018Z,1972
2017-09-16T13:05:00.707Z,1716
2017-09-16T13:06:09.725Z,1640
2017-09-16T13:07:19.384Z,1444
2017-09-16T13:08:28.421Z,1428
2017-09-16T13:09:37.438Z,1736
2017-09-16T13:10:46.140Z,1240
2017-09-16T13:11:55.161Z,1264
2017-09-16T13:13:04.177Z,1212
2017-09-16T13:14:13.193Z,1060
2017-09-16T13:15:22.854Z,864
2017-09-16T13:16:32.514Z,708
2017-09-16T13:17:42.170Z,616
2017-09-16T13:18:51.508Z,600
2017-09-16T13:20:00.209Z,652
2017-09-16T13:21:09.548Z,664
2017-09-16T13:22:18.247Z,584
2017-09-16T13:23:27.264Z,580
2017-09-16T13:24:36.603Z,552
2017-09-16T13:25:45.622Z,512
2017-09-16T13:26:54.645Z,488
2017-09-16T13:28:03.664Z,584
2017-09-16T13:29:12.679Z,1152
2017-09-16T13:30:22.025Z,1332
2017-09-16T13:31:31.682Z,1364
2017-09-16T13:32:40.717Z,932
2017-09-16T13:33:50.058Z,1220
2017-09-16T13:34:59.079Z,1424
2017-09-16T13:36:08.421Z,1104
2017-09-16T13:37:17.118Z,876
2017-09-16T13:38:26.460Z,812
2017-09-16T13:39:35.479Z,968
2017-09-16T13:40:44.180Z,1236
2017-09-16T13:41:53.526Z,1224
2017-09-16T13:43:02.865Z,1260
2017-09-16T13:44:12.536Z,1080
2017-09-16T13:45:21.561Z,1060
2017-09-16T13:46:30.899Z,1452
2017-09-16T13:47:39.915Z,1408
2017-09-16T13:48:49.578Z,1088
2017-09-16T13:49:58.596Z,1200
2017-09-16T13:51:07.935Z,1292
2017-09-16T13:52:17.272Z,1240
2017-09-16T13:53:26.617Z,1336
2017-09-16T13:54:35.957Z,1208
2017-09-16T13:55:44.975Z,1172
2017-09-16T13:56:54.636Z,1056
2017-09-16T13:58:04.930Z,1116
2017-09-16T13:59:14.586Z,1176
2017-09-16T14:00:23.925Z,1208
2017-09-16T14:01:33.586Z,1316
2017-09-16T14:02:42.283Z,1572
2017-09-16T14:03:51.946Z,1252
2017-09-16T14:05:00.644Z,1484
2017-09-16T14:06:10.315Z,1504
2017-09-16T14:07:20.000Z,1288
2017-09-16T14:08:29.656Z,1140
2017-09-16T14:09:38.675Z,1136
2017-09-16T14:10:48.024Z,1236
2017-09-16T14:11:57.361Z,1284
2017-09-16T14:13:06.381Z,1144
2017-09-16T14:14:15.399Z,1000
2017-09-16T14:15:24.415Z,888
2017-09-16T14:16:34.071Z,812
2017-09-16T14:17:43.096Z,864
2017-09-16T14:18:51.791Z,884
2017-09-16T14:20:01.130Z,840
2017-09-16T14:21:10.787Z,732
2017-09-16T14:22:20.125Z,696
2017-09-16T14:23:28.825Z,696
2017-09-16T14:24:38.165Z,724
2017-09-16T14:25:47.184Z,792
2017-09-16T14:26:56.216Z,764
2017-09-16T14:28:05.551Z,740
2017-09-16T14:29:14.893Z,656
2017-09-16T14:30:23.914Z,612
2017-09-16T14:31:32.932Z,636
2017-09-16T14:32:41.949Z,668
2017-09-16T14:33:50.647Z,572
2017-09-16T14:35:00.301Z,592
2017-09-16T14:36:09.639Z,544
2017-09-16T14:37:18.977Z,544
2017-09-16T14:38:28.638Z,628
2017-09-16T14:39:37.655Z,768
2017-09-16T14:40:46.991Z,952
2017-09-16T14:41:55.690Z,1044
2017-09-16T14:43:04.710Z,960
2017-09-16T14:44:13.735Z,916
2017-09-16T14:45:22.433Z,760
2017-09-16T14:46:31.130Z,816
2017-09-16T14:47:40.789Z,772
2017-09-16T14:48:50.128Z,544
2017-09-16T14:49:59.148Z,512
2017-09-16T14:51:07.848Z,564
2017-09-16T14:52:17.517Z,400
2017-09-16T14:53:26.527Z,396
2017-09-16T14:54:35.860Z,408
2017-09-16T14:55:44.878Z,512
2017-09-16T14:56:53.893Z,520
2017-09-16T14:58:03.550Z,496
2017-09-16T14:59:12.567Z,428
2017-09-16T15:00:21.584Z,392
2017-09-16T15:01:30.934Z,416
2017-09-16T15:02:40.274Z,468
2017-09-16T15:03:49.289Z,552
2017-09-16T15:04:57.988Z,612
2017-09-16T15:06:07.324Z,584
2017-09-16T15:07:16.341Z,576
2017-09-16T15:08:25.041Z,568
2017-09-16T15:09:34.060Z,584
2017-09-16T15:10:43.084Z,564
2017-09-16T15:11:52.426Z,548
2017-09-16T15:13:01.445Z,544
2017-09-16T15:14:10.469Z,528
2017-09-16T15:15:20.130Z,528
2017-09-16T15:16:29.468Z,444
2017-09-16T15:17:38.486Z,428
2017-09-16T15:18:47.823Z,400
2017-09-16T15:19:56.844Z,440
2017-09-16T15:21:06.180Z,384
2017-09-16T15:22:15.197Z,352
2017-09-16T15:23:25.175Z,388
2017-09-16T15:24:34.201Z,336
2017-09-16T15:25:43.535Z,328
2017-09-16T15:26:52.554Z,312
2017-09-16T15:28:01.573Z,316
2017-09-16T15:29:10.909Z,336
2017-09-16T15:30:19.925Z,424
2017-09-16T15:31:28.943Z,540
2017-09-16T15:32:38.603Z,548
2017-09-16T15:33:47.300Z,492
2017-09-16T15:34:56.316Z,432
2017-09-16T15:36:05.976Z,392
2017-09-16T15:37:15.952Z,368
2017-09-16T15:38:24.650Z,368
2017-09-16T15:39:33.666Z,360
2017-09-16T15:40:42.684Z,400
2017-09-16T15:41:51.382Z,344
2017-09-16T15:43:00.080Z,336
2017-09-16T15:44:09.416Z,352
2017-09-16T15:45:18.116Z,324
2017-09-16T15:46:27.446Z,284
2017-09-16T15:47:36.464Z,268
2017-09-16T15:48:45.163Z,264
2017-09-16T15:49:54.506Z,260
2017-09-16T15:51:03.523Z,264
2017-09-16T15:52:13.187Z,256
2017-09-16T15:53:22.846Z,252
2017-09-16T15:54:31.863Z,244
2017-09-16T15:55:40.561Z,252
2017-09-16T15:56:49.897Z,244
2017-09-16T15:57:59.561Z,236